Latest Weather Observations for Milingimbi

IDD60801

Issued at 11:01 am CST Sunday 29 May 2022 (issued every 10 minutes, with the page automatically refreshed every 10 minutes)

About weather observations | Map of weather stations | Latest weather observations for NT | Other Formats
Station Details ID: 014404 Name: MILINGIMBI AIRPORT Lat: -12.09 Lon: 134.89 Height: 15.0 m
Data from the previous 72 hours. | See also: Recent months at Milingimbi
Date/Time
CST
Temp
°C
App
Temp
°C
Dew
Point
°C
Rel
Hum
%
Delta-T
°C
Wind Press
QNH
hPa
Press
MSL
hPa
Rain since
9am
mm
Dir  Spd
km/h
Gust
km/h
Spd
kts
Gust
kts
29/11:00am 28.9 30.6 21.7 65 4.8 E 15 22 8 12 1012.0 1011.9 0.0
29/10:30am 28.8 31.0 21.8 66 4.7 E 13 24 7 13 1012.4 1012.3 0.0
29/10:00am 28.3 30.6 21.3 65 4.7 ESE 11 17 6 9 1012.7 1012.6 0.0
29/09:30am 27.9 29.6 21.0 66 4.6 ESE 13 20 7 11 1012.8 1012.7 0.0
29/09:00am 26.6 27.8 20.7 70 3.9 SE 15 20 8 11 1012.8 1012.7 -
29/08:30am 25.8 27.3 20.6 73 3.4 SE 13 20 7 11 1012.6 1012.5 -
29/08:00am 24.8 27.0 20.3 76 2.9 SE 9 17 5 9 1012.2 1012.1 -
29/07:30am 23.5 26.0 20.2 82 2.1 SE 7 13 4 7 1011.8 1011.7 -
29/07:00am 22.6 24.5 19.8 84 1.8 SE 9 13 5 7 1011.4 1011.3 -
29/06:30am 22.5 24.4 19.7 84 1.8 SSE 9 13 5 7 1011.1 1011.0 -
29/06:00am 22.5 24.4 19.7 84 1.8 SSE 9 13 5 7 1010.8 1010.7 -
29/05:30am 22.5 24.7 19.7 84 1.8 SSE 7 11 4 6 1010.8 1010.7 -
29/05:00am 22.5 24.4 19.7 84 1.8 SSE 9 11 5 6 1010.6 1010.5 -
29/04:30am 22.7 24.9 19.7 83 1.9 SSE 7 9 4 5 1010.6 1010.5 -
29/04:00am 23.0 24.8 19.6 81 2.2 SSE 9 11 5 6 1010.7 1010.6 -
29/03:30am 23.3 25.2 19.7 80 2.3 SSE 9 13 5 7 1010.9 1010.8 -
29/03:00am 23.6 25.5 19.7 79 2.5 SSE 9 13 5 7 1011.0 1010.9 -
29/02:30am 23.8 25.3 19.7 78 2.6 SSE 11 17 6 9 1011.1 1011.0 -
29/02:00am 24.2 26.2 19.9 77 2.8 SE 9 13 5 7 1011.4 1011.3 -
29/01:30am 25.5 27.1 20.7 75 3.2 ESE 13 20 7 11 1011.7 1011.6 -
 
Date/Time
CST
Temp
°C
App
Temp
°C
Dew
Point
°C
Rel
Hum
%
Delta-T
°C
Wind Press
QNH
hPa
Press
MSL
hPa
Rain since
9am
mm
Dir  Spd
km/h
Gust
km/h
Spd
kts
Gust
kts
28/11:30pm 26.3 27.3 20.2 69 4.0 ESE 15 26 8 14 1012.0 1011.9 0.0
28/11:00pm 26.5 27.0 20.1 68 4.2 ESE 17 26 9 14 1012.0 1011.9 0.0
28/10:30pm 26.6 27.2 20.2 68 4.2 ESE 17 30 9 16 1012.0 1011.9 0.0
28/10:00pm 26.8 27.6 19.9 66 4.5 ESE 15 32 8 17 1011.9 1011.8 0.0
28/09:30pm 27.1 27.6 20.0 65 4.6 ESE 17 32 9 17 1011.9 1011.8 0.0
28/09:00pm 27.4 27.7 19.7 63 5.0 ESE 17 28 9 15 1011.7 1011.6 0.0
28/08:30pm 27.8 27.7 19.6 61 5.3 ESE 19 35 10 19 1011.4 1011.3 0.0
28/08:00pm 28.3 29.3 20.3 62 5.3 ESE 15 28 8 15 1011.0 1010.9 0.0
28/07:30pm 28.6 29.8 20.6 62 5.3 ESE 15 26 8 14 1010.6 1010.5 0.0
28/07:00pm 29.1 30.9 21.1 62 5.3 ESE 13 24 7 13 1010.1 1010.0 0.0
28/06:30pm 28.6 32.6 23.1 72 3.8 NE 7 17 4 9 1009.8 1009.7 0.0
28/06:00pm 29.0 32.7 22.5 68 4.4 NNE 7 11 4 6 1009.6 1009.5 0.0
28/05:30pm 30.0 33.2 21.7 61 5.6 NE 7 13 4 7 1009.3 1009.2 0.0
28/05:00pm 30.3 32.8 21.1 58 6.2 ENE 9 15 5 8 1009.1 1009.0 0.0
28/04:30pm 30.8 32.8 20.7 55 6.7 ENE 11 17 6 9 1009.0 1008.9 0.0
28/04:00pm 31.4 33.1 21.0 54 7.0 ENE 13 17 7 9 1009.1 1009.0 0.0
28/03:30pm 31.8 33.7 21.3 53 7.1 E 13 20 7 11 1009.1 1009.0 0.0
28/03:00pm 31.9 33.5 20.8 51 7.4 E 13 20 7 11 1009.2 1009.1 0.0
28/02:30pm 31.3 32.8 20.6 53 7.1 E 13 20 7 11 1009.4 1009.3 0.0
28/02:00pm 31.6 33.6 20.8 52 7.2 E 11 20 6 11 1009.8 1009.7 0.0
28/01:30pm 31.8 33.8 21.6 54 6.9 ESE 13 20 7 11 1010.2 1010.1 0.0
28/01:00pm 30.9 32.2 20.8 55 6.7 E 15 24 8 13 1010.7 1010.6 0.0
28/12:30pm 30.7 32.3 21.5 58 6.2 E 15 26 8 14 1011.4 1011.3 0.0
28/12:00pm 30.7 32.3 21.5 58 6.2 ESE 15 20 8 11 1012.0 1011.9 0.0
28/11:30am 30.6 32.4 21.9 59 5.9 ESE 15 24 8 13 1012.4 1012.3 0.0
28/11:00am 30.0 31.8 21.9 62 5.5 ESE 15 28 8 15 1012.7 1012.6 0.0
28/10:30am 29.0 31.6 22.7 69 4.3 ESE 13 20 7 11 1012.8 1012.7 0.0
28/10:00am 28.6 30.8 22.6 70 4.1 SE 15 24 8 13 1012.9 1012.8 0.0
28/09:30am 28.3 30.3 22.3 70 4.1 ESE 15 24 8 13 1013.1 1013.0 0.0
28/09:00am 27.3 29.2 22.0 73 3.6 SE 15 22 8 12 1013.0 1012.9 0.0
28/08:30am 26.0 28.4 22.3 80 2.5 SE 13 20 7 11 1012.7 1012.6 0.0
28/08:00am 24.5 26.9 21.6 84 1.9 SE 11 17 6 9 1012.5 1012.4 0.0
28/07:30am 23.2 25.3 20.9 87 1.5 SSE 11 15 6 8 1012.2 1012.1 0.0
28/07:00am 22.3 24.7 20.8 91 1.0 SSE 9 13 5 7 1012.0 1011.9 0.0
28/06:30am 21.8 24.4 20.4 92 0.9 SSE 7 9 4 5 1011.6 1011.5 0.0
28/06:00am 21.6 24.3 20.2 92 0.9 SSE 6 9 3 5 1011.4 1011.3 0.0
28/05:30am 22.0 24.7 20.3 90 1.1 SSE 6 9 3 5 1011.1 1011.0 0.0
28/05:00am 22.3 24.4 20.2 88 1.4 SSE 9 11 5 6 1011.2 1011.1 0.0
28/04:30am 22.3 24.9 20.0 87 1.5 SSE 6 9 3 5 1011.3 1011.2 0.0
28/04:00am 22.3 24.9 20.0 87 1.5 S 6 9 3 5 1011.3 1011.2 0.0
28/03:30am 22.8 25.4 20.1 85 1.7 S 6 7 3 4 1011.6 1011.5 0.0
28/03:00am 23.1 25.2 20.1 83 1.9 S 9 13 5 7 1011.6 1011.5 0.0
28/02:30am 23.2 25.3 20.2 83 1.9 S 9 15 5 8 1011.8 1011.7 0.0
28/02:00am 23.4 25.6 20.3 83 2.0 S 9 13 5 7 1012.1 1012.0 0.0
28/01:30am 23.7 25.8 20.2 81 2.3 SSE 9 13 5 7 1012.4 1012.3 0.0
28/01:00am 23.9 25.6 20.2 80 2.4 SSE 11 13 6 7 1012.6 1012.5 0.0
28/12:30am 24.2 26.0 20.3 79 2.5 SSE 11 15 6 8 1012.7 1012.6 0.0
28/12:00am 24.6 26.5 20.5 78 2.7 SSE 11 17 6 9 1012.8 1012.7 0.0
 
Date/Time
CST
Temp
°C
App
Temp
°C
Dew
Point
°C
Rel
Hum
%
Delta-T
°C
Wind Press
QNH
hPa
Press
MSL
hPa
Rain since
9am
mm
Dir  Spd
km/h
Gust
km/h
Spd
kts
Gust
kts
27/11:30pm 24.8 26.7 20.5 77 2.8 SE 11 19 6 10 1013.0 1012.9 0.0
27/11:00pm 25.2 26.3 20.5 75 3.1 SE 15 24 8 13 1013.0 1012.9 0.0
27/10:30pm 25.5 27.0 20.5 74 3.3 SE 13 20 7 11 1012.8 1012.7 0.0
27/10:00pm 26.0 27.5 20.6 72 3.5 SE 13 20 7 11 1012.8 1012.7 0.0
27/09:30pm 26.5 27.4 20.1 68 4.2 SE 15 22 8 12 1012.7 1012.6 0.0
27/09:00pm 27.4 27.8 20.7 67 4.4 SE 19 28 10 15 1012.3 1012.2 0.0
27/08:30pm 27.7 28.0 20.5 65 4.7 SE 19 30 10 16 1012.0 1011.9 0.0
27/08:00pm 28.2 29.3 20.5 63 5.1 SE 15 24 8 13 1011.6 1011.5 0.0
27/07:30pm 28.5 30.2 20.2 60 5.5 SE 11 15 6 8 1011.2 1011.1 0.0
27/07:00pm 28.1 31.0 21.1 65 4.7 ESE 7 11 4 6 1010.9 1010.8 0.0
27/06:30pm 28.2 30.9 20.7 63 5.0 E 7 11 4 6 1010.5 1010.4 0.0
27/06:00pm 28.6 31.7 20.3 60 5.5 ENE 4 6 2 3 1010.2 1010.1 0.0
27/05:30pm 30.4 32.9 20.3 54 6.7 E 7 11 4 6 1009.8 1009.7 0.0
27/05:00pm 30.9 32.7 19.6 51 7.4 E 9 13 5 7 1009.3 1009.2 0.0
27/04:30pm 31.2 33.4 19.5 49 7.7 E 7 11 4 6 1009.2 1009.1 0.0
27/04:00pm 32.1 34.1 20.0 48 8.0 E 9 13 5 7 1009.3 1009.2 0.0
27/03:30pm 31.8 33.7 19.8 49 7.9 E 9 15 5 8 1009.3 1009.2 0.0
27/03:00pm 31.2 32.2 19.5 49 7.7 E 13 20 7 11 1009.6 1009.5 0.0
27/02:30pm 32.6 34.3 20.2 48 8.2 ESE 11 20 6 11 1009.8 1009.7 0.0
27/02:00pm 31.6 33.5 20.5 51 7.4 E 11 19 6 10 1010.1 1010.0 0.0
27/01:30pm 31.8 33.3 19.8 49 7.9 ESE 11 20 6 11 1010.5 1010.4 0.0
27/01:00pm 31.8 32.2 19.1 47 8.3 ESE 15 24 8 13 1011.1 1011.0 0.0
27/12:30pm 31.2 32.0 19.9 51 7.5 ESE 15 24 8 13 1011.6 1011.5 0.0
27/12:00pm 31.3 31.7 19.9 50 7.5 ESE 17 26 9 14 1012.0 1011.9 0.0
27/11:30am 30.4 30.9 20.0 53 6.9 ESE 17 24 9 13 1012.4 1012.3 0.0
27/11:00am 30.3 30.8 20.0 54 6.8 SE 17 28 9 15 1012.5 1012.4 0.0
27/10:30am 29.9 31.4 20.5 57 6.2 ESE 13 26 7 14 1012.7 1012.6 0.0
27/10:00am 29.2 30.7 21.2 62 5.3 SE 15 28 8 15 1012.8 1012.7 0.0
27/09:30am 28.0 28.9 20.8 65 4.8 SE 17 26 9 14 1012.8 1012.7 0.0
27/09:00am 27.0 28.6 20.8 69 4.1 SE 13 20 7 11 1012.7 1012.6 0.0
27/08:30am 25.0 26.2 20.7 77 2.8 SSE 15 22 8 12 1012.3 1012.2 0.0
27/08:00am 23.8 25.2 20.3 81 2.3 SSE 13 20 7 11 1012.1 1012.0 0.0
27/07:30am 22.9 24.2 20.1 84 1.8 SSE 13 17 7 9 1011.9 1011.8 0.0
27/07:00am 21.8 23.8 19.9 89 1.2 SSE 9 15 5 8 1011.5 1011.4 0.0
27/06:30am 21.4 23.7 19.9 91 1.0 SSE 7 11 4 6 1011.3 1011.2 0.0
27/06:00am 21.8 23.9 20.1 90 1.1 SSE 9 11 5 6 1010.9 1010.8 0.0
27/05:30am 22.1 24.2 20.2 89 1.2 SSE 9 13 5 7 1010.7 1010.6 0.0
27/05:00am 22.4 24.6 20.3 88 1.4 SSE 9 13 5 7 1010.7 1010.6 0.0
27/04:30am 22.6 24.8 20.3 87 1.5 SSE 9 13 5 7 1010.6 1010.5 0.0
27/04:00am 22.8 25.0 20.3 86 1.6 SSE 9 13 5 7 1010.6 1010.5 0.0
27/03:30am 22.8 25.0 20.3 86 1.6 SSE 9 13 5 7 1010.5 1010.4 0.0
27/03:00am 23.0 25.2 20.3 85 1.7 SSE 9 13 5 7 1010.6 1010.5 0.0
27/02:30am 22.5 25.1 20.4 88 1.4 SE 7 9 4 5 1010.8 1010.7 0.0
27/02:00am 22.7 25.7 20.0 85 1.7 SSE 4 7 2 4 1011.0 1010.9 0.0
27/01:30am 23.3 25.7 20.1 82 2.1 SE 7 13 4 7 1011.2 1011.1 0.0
27/01:00am 23.7 25.4 20.2 81 2.3 SE 11 15 6 8 1011.4 1011.3 0.0
27/12:30am 23.9 26.0 20.2 80 2.4 SE 9 13 5 7 1011.6 1011.5 0.0
27/12:00am 24.2 25.9 20.1 78 2.7 SE 11 15 6 8 1011.7 1011.6 0.0
 
Date/Time
CST
Temp
°C
App
Temp
°C
Dew
Point
°C
Rel
Hum
%
Delta-T
°C
Wind Press
QNH
hPa
Press
MSL
hPa
Rain since
9am
mm
Dir  Spd
km/h
Gust
km/h
Spd
kts
Gust
kts
26/11:30pm 24.6 25.9 20.1 76 2.9 SE 13 19 7 10 1011.8 1011.7 0.0
26/11:00pm 25.2 26.5 20.2 74 3.3 SE 13 20 7 11 1012.0 1011.9 0.0
26/10:30pm 25.7 27.1 20.3 72 3.5 SE 13 22 7 12 1012.1 1012.0 0.0
26/10:00pm 26.0 27.5 20.6 72 3.5 SE 13 22 7 12 1012.0 1011.9 0.0
26/09:30pm 26.3 27.6 20.2 69 4.0 SE 13 24 7 13 1011.9 1011.8 0.0
26/09:00pm 26.9 27.9 20.3 67 4.3 SE 15 26 8 14 1011.8 1011.7 0.0
26/08:30pm 27.4 28.1 20.5 66 4.5 ESE 17 30 9 16 1011.5 1011.4 0.0
26/08:00pm 27.9 28.6 20.5 64 4.9 ESE 17 28 9 15 1010.9 1010.8 0.0
26/07:30pm 28.5 29.7 20.0 60 5.6 ESE 13 28 7 15 1010.4 1010.3 0.0
26/07:00pm 28.5 30.2 19.4 57 5.9 ESE 9 15 5 8 1010.1 1010.0 0.0
26/06:30pm 29.1 30.3 19.1 54 6.5 SE 11 20 6 11 1009.9 1009.8 0.0
26/06:00pm 29.4 31.0 19.1 54 6.7 ESE 9 17 5 9 1009.6 1009.5 0.0
26/05:30pm 29.7 30.5 19.1 53 6.9 ESE 13 20 7 11 1009.4 1009.3 0.0
26/05:00pm 30.7 32.2 19.7 52 7.2 ESE 11 17 6 9 1009.2 1009.1 0.0
26/04:30pm 31.4 32.9 19.7 49 7.7 ESE 11 20 6 11 1009.1 1009.0 0.0
26/04:00pm 31.6 33.0 19.6 49 7.9 E 11 20 6 11 1009.1 1009.0 0.0
26/03:30pm 31.7 32.8 19.7 49 7.9 E 13 24 7 13 1009.2 1009.1 0.0
26/03:00pm 32.7 34.1 19.6 46 8.6 E 11 24 6 13 1009.5 1009.4 0.0
26/02:30pm 32.9 33.5 18.7 43 9.3 ESE 13 22 7 12 1009.7 1009.6 0.0
26/02:00pm 33.1 34.2 19.6 45 8.9 ESE 13 22 7 12 1010.1 1010.0 0.0
26/01:30pm 31.6 32.2 18.6 46 8.4 ESE 13 22 7 12 1010.5 1010.4 0.0
26/01:00pm 31.9 31.8 17.8 43 9.0 SE 15 24 8 13 1011.0 1010.9 0.0
26/12:30pm 31.2 30.7 16.8 42 9.1 ESE 15 24 8 13 1011.5 1011.4 0.0
26/12:00pm 31.0 31.6 18.7 48 8.0 E 13 20 7 11 1011.8 1011.7 0.0
26/11:30am 32.0 30.7 16.7 40 9.7 SE 19 33 10 18 1012.2 1012.1 0.0

Other formats

Comma delimited format used in spreadsheet applications
http://www.bom.gov.au/fwo/IDD60801/IDD60801.94140.axf

JavaScript Object Notation format (JSON) in row-major order
http://www.bom.gov.au/fwo/IDD60801/IDD60801.94140.json

Data quality

Most of these data are generated automatically and are frequently updated. Quality checks on data are not normally performed. It is possible for incorrect values to appear. Refer to information at About Latest Weather Observations and please check the disclaimer before using these data.